createdAt,value
2022-11-21T00:01:23.818Z,31.90
2022-11-21T00:03:51.374Z,30.33
2022-11-21T00:06:19.644Z,29.27
2022-11-21T00:08:47.105Z,28.70
2022-11-21T00:11:15.643Z,28.60
2022-11-21T00:13:43.342Z,28.70
2022-11-21T00:16:13.301Z,28.50
2022-11-21T00:18:40.482Z,28.65
2022-11-21T00:21:10.527Z,28.80
2022-11-21T00:23:37.598Z,28.55
2022-11-21T00:26:06.795Z,30.42
2022-11-21T00:28:34.433Z,29.20
2022-11-21T00:31:01.967Z,28.95
2022-11-21T00:33:29.081Z,27.15
2022-11-21T00:35:56.151Z,29.70
2022-11-21T00:38:24.339Z,29.33
2022-11-21T00:40:51.397Z,29.70
2022-11-21T00:43:18.609Z,29.50
2022-11-21T00:45:45.676Z,28.80
2022-11-21T00:48:12.673Z,28.40
2022-11-21T00:50:39.686Z,27.92
2022-11-21T00:53:06.780Z,27.27
2022-11-21T00:55:33.790Z,29.30
2022-11-21T00:58:00.878Z,28.42
2022-11-21T01:00:27.937Z,27.75
2022-11-21T01:02:55.047Z,29.67
2022-11-21T01:05:23.335Z,30.35
2022-11-21T01:07:50.421Z,28.77
2022-11-21T01:10:17.444Z,28.65
2022-11-21T01:12:44.573Z,30.08
2022-11-21T01:15:11.790Z,29.27
2022-11-21T01:17:38.775Z,27.30
2022-11-21T01:20:07.030Z,26.17
2022-11-21T01:22:34.091Z,28.42
2022-11-21T01:25:01.129Z,26.83
2022-11-21T01:27:28.155Z,28.25
2022-11-21T01:29:55.131Z,28.02
2022-11-21T01:32:22.509Z,28.95
2022-11-21T01:34:49.529Z,26.50
2022-11-21T01:37:16.574Z,28.17
2022-11-21T01:39:43.619Z,29.65
2022-11-21T01:42:12.985Z,29.33
2022-11-21T01:44:49.793Z,27.88
2022-11-21T01:47:17.286Z,29.80
2022-11-21T01:49:45.227Z,27.45
2022-11-21T01:52:24.962Z,28.73
2022-11-21T01:54:57.741Z,29.10
2022-11-21T01:57:48.407Z,28.70
2022-11-21T02:00:24.320Z,29.50
2022-11-21T02:02:56.159Z,31.17
2022-11-21T02:05:28.097Z,30.35
2022-11-21T02:07:58.519Z,27.83
2022-11-21T02:10:26.105Z,29.52
2022-11-21T02:12:55.273Z,28.77
2022-11-21T02:15:26.051Z,29.92
2022-11-21T02:17:53.186Z,29.85
2022-11-21T02:20:23.928Z,29.13
2022-11-21T02:22:53.616Z,29.25
2022-11-21T02:25:31.467Z,31.00
2022-11-21T02:28:01.556Z,28.95
2022-11-21T02:30:33.067Z,29.50
2022-11-21T02:33:00.154Z,26.63
2022-11-21T02:35:27.150Z,26.05
2022-11-21T02:38:22.654Z,28.63
2022-11-21T02:41:13.585Z,27.27
2022-11-21T02:43:49.515Z,29.38
2022-11-21T02:46:16.542Z,27.25
2022-11-21T02:48:43.866Z,28.02
2022-11-21T02:51:10.923Z,28.35
2022-11-21T02:53:38.038Z,29.27
2022-11-21T02:56:05.123Z,28.40
2022-11-21T02:58:32.502Z,28.75
2022-11-21T03:00:59.586Z,28.60
2022-11-21T03:03:26.785Z,28.25
2022-11-21T03:05:54.488Z,28.17
2022-11-21T03:08:21.504Z,28.45
2022-11-21T03:10:48.527Z,29.67
2022-11-21T03:13:15.621Z,29.27
2022-11-21T03:15:42.658Z,27.75
2022-11-21T03:18:09.719Z,29.10
2022-11-21T03:20:36.773Z,29.17
2022-11-21T03:23:04.266Z,27.42
2022-11-21T03:25:31.408Z,29.08
2022-11-21T03:27:58.476Z,27.20
2022-11-21T03:30:26.652Z,29.77
2022-11-21T03:32:57.170Z,28.15
2022-11-21T03:35:24.486Z,29.20
2022-11-21T03:37:51.542Z,30.33
2022-11-21T03:40:18.589Z,27.95
2022-11-21T03:42:45.653Z,25.45
2022-11-21T03:45:12.634Z,27.83
2022-11-21T03:47:39.705Z,29.15
2022-11-21T03:50:07.267Z,29.65
2022-11-21T03:52:34.256Z,29.08
2022-11-21T03:55:01.302Z,30.17
2022-11-21T03:57:28.691Z,28.65
2022-11-21T03:59:55.731Z,28.45
2022-11-21T04:02:22.854Z,29.50
2022-11-21T04:04:49.854Z,30.50
2022-11-21T04:07:16.951Z,29.75
2022-11-21T04:09:43.980Z,31.33
2022-11-21T04:12:10.987Z,28.13
2022-11-21T04:14:38.045Z,30.02
2022-11-21T04:17:05.286Z,28.10
2022-11-21T04:19:32.286Z,28.73
2022-11-21T04:21:59.338Z,28.15
2022-11-21T04:24:26.707Z,28.05
2022-11-21T04:26:55.350Z,29.27
2022-11-21T04:29:22.433Z,28.67
2022-11-21T04:31:49.401Z,29.02
2022-11-21T04:34:16.435Z,30.33
2022-11-21T04:36:43.574Z,30.20
2022-11-21T04:39:10.815Z,30.83
2022-11-21T04:41:37.853Z,31.48
2022-11-21T04:44:05.119Z,29.33
2022-11-21T04:46:32.160Z,29.00
2022-11-21T04:48:59.248Z,31.55
2022-11-21T04:51:26.238Z,28.90
2022-11-21T04:53:53.615Z,29.88
2022-11-21T04:56:20.650Z,31.95
2022-11-21T04:58:47.680Z,32.67
2022-11-21T05:01:14.785Z,34.20
2022-11-21T05:03:41.862Z,33.38
2022-11-21T05:06:08.923Z,31.38
2022-11-21T05:08:35.991Z,30.88
2022-11-21T05:11:22.056Z,31.33
2022-11-21T05:13:49.093Z,28.30
2022-11-21T05:16:16.131Z,30.30
2022-11-21T05:18:43.677Z,29.55
2022-11-21T05:21:10.741Z,32.20
2022-11-21T05:23:37.742Z,33.40
2022-11-21T05:26:04.754Z,37.03
2022-11-21T05:28:31.774Z,29.67
2022-11-21T05:30:58.847Z,33.78
2022-11-21T05:33:25.901Z,44.53
2022-11-21T05:35:53.064Z,34.45
2022-11-21T05:38:20.128Z,30.27
2022-11-21T05:40:47.554Z,33.75
2022-11-21T05:43:33.060Z,33.08
2022-11-21T05:46:00.069Z,32.92
2022-11-21T05:48:27.133Z,30.45
2022-11-21T05:50:54.486Z,30.45
2022-11-21T05:53:21.768Z,32.25
2022-11-21T05:55:48.780Z,28.17
2022-11-21T05:58:18.711Z,30.13
2022-11-21T06:00:45.732Z,27.73
2022-11-21T06:03:27.642Z,27.75
2022-11-21T06:06:07.977Z,26.83
2022-11-21T06:08:37.613Z,24.00
2022-11-21T06:11:06.351Z,25.52
2022-11-21T06:13:36.528Z,27.70
2022-11-21T06:16:06.390Z,26.80
2022-11-21T06:18:35.458Z,25.38
2022-11-21T06:21:05.565Z,26.35
2022-11-21T06:23:32.674Z,27.33
2022-11-21T06:26:02.190Z,24.27
2022-11-21T06:28:34.855Z,26.45
2022-11-21T06:31:10.669Z,25.85
2022-11-21T06:33:38.710Z,27.70
2022-11-21T06:36:08.252Z,26.05
2022-11-21T06:38:35.781Z,28.27
2022-11-21T06:41:32.242Z,26.38
2022-11-21T06:44:01.394Z,25.85
2022-11-21T06:46:28.668Z,25.45
2022-11-21T06:48:55.683Z,25.30
2022-11-21T06:51:24.097Z,26.98
2022-11-21T06:53:56.433Z,24.40
2022-11-21T06:56:28.562Z,26.35
2022-11-21T06:58:56.380Z,25.40
2022-11-21T07:01:23.948Z,24.52
2022-11-21T07:03:51.812Z,25.17
2022-11-21T07:06:18.840Z,24.85
2022-11-21T07:08:45.877Z,26.08
2022-11-21T07:11:30.313Z,27.52
2022-11-21T07:13:57.416Z,25.45
2022-11-21T07:16:26.308Z,28.38
2022-11-21T07:18:53.546Z,26.52
2022-11-21T07:21:20.726Z,26.58
2022-11-21T07:23:48.681Z,25.88
2022-11-21T07:26:15.810Z,28.08
2022-11-21T07:28:43.200Z,27.95
2022-11-21T07:31:13.993Z,26.85
2022-11-21T07:33:43.442Z,25.58
2022-11-21T07:36:11.919Z,25.88
2022-11-21T07:38:39.110Z,27.70
2022-11-21T07:41:06.190Z,27.60
2022-11-21T07:43:33.249Z,27.80
2022-11-21T07:46:00.297Z,27.88
2022-11-21T07:48:27.360Z,28.27
2022-11-21T07:50:54.375Z,26.70
2022-11-21T07:53:21.952Z,25.98
2022-11-21T07:55:49.413Z,26.88
2022-11-21T07:58:17.289Z,28.00
2022-11-21T08:00:44.364Z,27.15
2022-11-21T08:03:13.100Z,26.48
2022-11-21T08:05:42.756Z,25.58
2022-11-21T08:08:12.118Z,28.38
2022-11-21T08:10:43.885Z,28.15
2022-11-21T08:13:12.050Z,26.92
2022-11-21T08:15:39.611Z,27.65
2022-11-21T08:18:11.015Z,26.42
2022-11-21T08:20:38.437Z,26.73
2022-11-21T08:23:06.551Z,26.00
2022-11-21T08:25:36.687Z,27.48
2022-11-21T08:28:04.528Z,25.90
2022-11-21T08:30:32.797Z,25.70
2022-11-21T08:33:00.213Z,25.02
2022-11-21T08:35:28.427Z,26.73
2022-11-21T08:37:59.242Z,24.92
2022-11-21T08:40:27.720Z,22.45
2022-11-21T08:43:20.759Z,23.10
2022-11-21T08:45:47.988Z,22.70
2022-11-21T08:48:15.261Z,23.33
2022-11-21T08:50:42.278Z,24.98
2022-11-21T08:53:09.235Z,24.02
2022-11-21T08:55:36.241Z,25.27
2022-11-21T08:58:03.286Z,25.90
2022-11-21T09:00:30.299Z,25.75
2022-11-21T09:02:57.342Z,25.60
2022-11-21T09:05:24.638Z,25.45
2022-11-21T09:07:58.279Z,26.13
2022-11-21T09:10:26.913Z,25.98
2022-11-21T09:12:54.001Z,26.38
2022-11-21T09:15:39.806Z,27.70
2022-11-21T09:18:08.069Z,25.90
2022-11-21T09:20:47.698Z,25.45
2022-11-21T09:23:15.968Z,23.95
2022-11-21T09:25:43.390Z,25.42
2022-11-21T09:28:12.580Z,24.08
2022-11-21T09:30:40.902Z,23.92
2022-11-21T09:33:11.592Z,24.50
2022-11-21T09:35:38.900Z,26.17
2022-11-21T09:38:06.355Z,25.27
2022-11-21T09:40:34.785Z,26.20
2022-11-21T09:43:26.335Z,25.80
2022-11-21T09:46:15.959Z,25.55
2022-11-21T09:48:59.112Z,26.92
2022-11-21T09:51:30.873Z,29.47
2022-11-21T09:54:18.848Z,28.95
2022-11-21T09:56:47.237Z,28.98
2022-11-21T09:59:26.353Z,29.77
2022-11-21T10:01:53.405Z,29.10
2022-11-21T10:04:20.535Z,29.73
2022-11-21T10:07:04.814Z,28.40
2022-11-21T10:09:55.917Z,28.77
2022-11-21T10:12:38.672Z,29.48
2022-11-21T10:15:29.095Z,30.00
2022-11-21T10:18:14.369Z,27.92
2022-11-21T10:20:50.628Z,28.45
2022-11-21T10:23:36.861Z,27.83
2022-11-21T10:26:30.942Z,28.20
2022-11-21T10:29:06.967Z,29.00
2022-11-21T10:31:38.588Z,27.45
2022-11-21T10:34:18.203Z,27.90
2022-11-21T10:36:49.817Z,29.05
2022-11-21T10:39:23.077Z,28.08
2022-11-21T10:42:06.516Z,27.25
2022-11-21T10:44:51.946Z,29.27
2022-11-21T10:47:27.938Z,29.85
2022-11-21T10:50:01.408Z,29.20
2022-11-21T10:52:34.152Z,28.88
2022-11-21T10:55:12.635Z,28.00
2022-11-21T10:57:41.890Z,28.25
2022-11-21T11:00:12.300Z,29.73
2022-11-21T11:02:41.355Z,29.85
2022-11-21T11:05:25.257Z,29.83
2022-11-21T11:08:02.473Z,29.50
2022-11-21T11:10:31.221Z,30.90
2022-11-21T11:13:44.641Z,31.02
2022-11-21T11:16:16.949Z,28.45
2022-11-21T11:19:08.659Z,30.65
2022-11-21T11:21:44.306Z,31.75
2022-11-21T11:24:14.339Z,29.08
2022-11-21T11:26:53.124Z,33.47
2022-11-21T11:29:24.441Z,29.05
2022-11-21T11:31:58.725Z,30.42
2022-11-21T11:34:38.716Z,32.13
2022-11-21T11:37:41.161Z,29.95
2022-11-21T11:40:26.690Z,31.65
2022-11-21T11:43:31.124Z,30.17
2022-11-21T11:47:04.336Z,29.40
2022-11-21T11:50:15.650Z,29.42
2022-11-21T11:53:00.548Z,30.92
2022-11-21T11:55:33.560Z,30.42
2022-11-21T11:58:05.123Z,29.70
2022-11-21T12:00:45.187Z,30.50
2022-11-21T12:03:19.109Z,30.52
2022-11-21T12:06:08.632Z,29.67
2022-11-21T12:08:50.964Z,29.15
2022-11-21T12:11:45.557Z,30.00
2022-11-21T12:14:48.739Z,29.02
2022-11-21T12:17:19.498Z,28.27
2022-11-21T12:19:48.763Z,29.90
2022-11-21T12:22:15.828Z,29.38
2022-11-21T12:24:43.569Z,27.98
2022-11-21T12:27:31.466Z,27.52
2022-11-21T12:30:25.181Z,28.35
2022-11-21T12:33:13.364Z,26.45
2022-11-21T12:36:17.464Z,27.10
2022-11-21T12:42:01.740Z,25.65
2022-11-21T12:44:40.358Z,25.63
2022-11-21T12:47:57.608Z,26.42
2022-11-21T12:50:58.936Z,25.02
2022-11-21T12:54:07.628Z,27.17
2022-11-21T12:56:57.743Z,23.73
2022-11-21T12:59:25.369Z,23.70
2022-11-21T13:02:29.970Z,22.35
2022-11-21T13:04:59.523Z,21.30
2022-11-21T13:07:31.227Z,21.65
2022-11-21T13:10:00.933Z,21.67
2022-11-21T13:12:40.150Z,23.20
2022-11-21T13:15:21.851Z,20.35
2022-11-21T13:17:53.773Z,22.23
2022-11-21T13:20:28.030Z,21.20
2022-11-21T13:22:57.492Z,20.77
2022-11-21T13:25:30.261Z,21.00
2022-11-21T13:28:19.067Z,21.52
2022-11-21T13:30:51.103Z,19.95
2022-11-21T13:33:38.947Z,20.70
2022-11-21T13:36:10.408Z,21.20
2022-11-21T13:38:55.340Z,24.00
2022-11-21T13:41:53.195Z,22.20
2022-11-21T13:44:32.271Z,21.23
2022-11-21T13:47:09.354Z,19.83
2022-11-21T13:49:54.837Z,20.75
2022-11-21T13:52:53.915Z,18.08
2022-11-21T13:55:20.907Z,19.20
2022-11-21T13:58:38.741Z,22.27
2022-11-21T14:01:10.427Z,17.42
2022-11-21T14:03:55.860Z,17.38
2022-11-21T14:06:44.498Z,19.55
2022-11-21T14:09:21.840Z,18.73
2022-11-21T14:11:53.124Z,19.10
2022-11-21T14:14:31.460Z,19.80
2022-11-21T14:17:09.141Z,20.48
2022-11-21T14:19:36.411Z,19.55
2022-11-21T14:22:03.428Z,19.95
2022-11-21T14:24:30.622Z,19.02
2022-11-21T14:26:58.362Z,21.00
2022-11-21T14:29:39.477Z,18.98
2022-11-21T14:32:14.056Z,17.63
2022-11-21T14:34:41.124Z,20.35
2022-11-21T14:37:08.294Z,18.17
2022-11-21T14:39:44.126Z,17.20
2022-11-21T14:42:16.189Z,16.88
2022-11-21T14:44:43.984Z,16.83
2022-11-21T14:47:23.505Z,16.65
2022-11-21T14:49:54.912Z,15.85
2022-11-21T14:52:34.065Z,17.77
2022-11-21T14:57:53.056Z,15.45
2022-11-21T15:00:58.015Z,15.10
2022-11-21T15:03:22.291Z,15.65
2022-11-21T15:06:08.355Z,14.77
2022-11-21T15:11:34.589Z,14.40
2022-11-21T15:14:16.554Z,13.93
2022-11-21T15:16:50.237Z,14.80
2022-11-21T15:19:22.610Z,13.30
2022-11-21T15:21:53.088Z,13.90
2022-11-21T15:24:42.290Z,14.35
2022-11-21T15:27:27.539Z,13.70
2022-11-21T15:30:09.541Z,12.50
2022-11-21T15:33:08.937Z,13.18
2022-11-21T15:35:39.421Z,13.50
2022-11-21T15:38:27.439Z,12.85
2022-11-21T15:41:10.582Z,13.38
2022-11-21T15:43:47.962Z,12.17
2022-11-21T15:46:32.838Z,12.30
2022-11-21T15:49:31.455Z,12.52
2022-11-21T15:52:10.406Z,12.95
2022-11-21T15:54:38.025Z,13.10
2022-11-21T15:57:05.361Z,14.18
2022-11-21T15:59:32.760Z,13.52
2022-11-21T16:01:59.965Z,12.57
2022-11-21T16:04:27.382Z,13.40
2022-11-21T16:06:54.921Z,12.02
2022-11-21T16:09:22.088Z,11.45
2022-11-21T16:11:49.130Z,11.10
2022-11-21T16:14:18.337Z,10.70
2022-11-21T16:16:48.728Z,13.07
2022-11-21T16:19:16.170Z,12.23
2022-11-21T16:21:43.202Z,13.30
2022-11-21T16:24:10.296Z,12.65
2022-11-21T16:26:37.535Z,11.60
2022-11-21T16:29:05.667Z,12.63
2022-11-21T16:31:33.133Z,13.13
2022-11-21T16:34:00.749Z,13.60
2022-11-21T16:36:30.528Z,11.07
2022-11-21T16:39:01.903Z,12.45
2022-11-21T16:41:32.586Z,10.25
2022-11-21T16:43:59.633Z,12.13
2022-11-21T16:46:26.800Z,10.57
2022-11-21T16:49:02.388Z,12.63
2022-11-21T16:51:29.899Z,12.13
2022-11-21T16:53:59.681Z,12.75
2022-11-21T16:56:30.120Z,12.85
2022-11-21T16:58:57.170Z,11.43
2022-11-21T17:01:26.136Z,11.77
2022-11-21T17:03:53.508Z,11.82
2022-11-21T17:06:23.770Z,10.98
2022-11-21T17:08:50.882Z,11.43
2022-11-21T17:11:19.214Z,10.40
2022-11-21T17:13:47.963Z,10.73
2022-11-21T17:16:17.073Z,11.13
2022-11-21T17:18:44.928Z,11.38
2022-11-21T17:21:15.757Z,10.48
2022-11-21T17:23:44.759Z,11.77
2022-11-21T17:26:17.337Z,10.15
2022-11-21T17:28:46.090Z,10.63
2022-11-21T17:31:15.387Z,11.80
2022-11-21T17:33:43.441Z,11.45
2022-11-21T17:36:14.471Z,10.68
2022-11-21T17:38:42.935Z,10.93
2022-11-21T17:41:12.041Z,10.20
2022-11-21T17:43:39.467Z,10.55
2022-11-21T17:46:18.324Z,9.13
2022-11-21T17:48:51.442Z,9.70
2022-11-21T17:51:25.357Z,10.40
2022-11-21T17:53:53.124Z,10.18
2022-11-21T17:56:23.161Z,10.88
2022-11-21T17:58:51.293Z,10.65
2022-11-21T18:01:19.884Z,9.93
2022-11-21T18:04:18.103Z,10.10
2022-11-21T18:06:45.177Z,10.98
2022-11-21T18:09:12.829Z,9.80
2022-11-21T18:11:40.806Z,9.95
2022-11-21T18:14:09.867Z,9.50
2022-11-21T18:16:43.653Z,9.57
2022-11-21T18:19:14.826Z,10.60
2022-11-21T18:21:42.328Z,11.43
2022-11-21T18:24:09.541Z,11.82
2022-11-21T18:26:38.565Z,11.20
2022-11-21T18:31:56.875Z,12.40
2022-11-21T18:34:24.190Z,12.20
2022-11-21T18:36:51.288Z,11.25
2022-11-21T18:39:18.351Z,11.40
2022-11-21T18:41:45.460Z,9.77
2022-11-21T18:44:20.141Z,10.68
2022-11-21T18:46:49.065Z,8.82
2022-11-21T18:49:16.073Z,9.10
2022-11-21T18:51:43.142Z,8.80
2022-11-21T18:54:10.938Z,8.65
2022-11-21T18:56:39.502Z,8.40
2022-11-21T18:59:06.993Z,9.75
2022-11-21T19:01:35.963Z,9.23
2022-11-21T19:04:03.346Z,11.10
2022-11-21T19:06:30.412Z,11.68
2022-11-21T19:08:58.357Z,10.48
2022-11-21T19:11:27.659Z,8.48
2022-11-21T19:13:56.329Z,9.57
2022-11-21T19:16:25.264Z,9.27
2022-11-21T19:21:42.368Z,9.20
2022-11-21T19:24:14.629Z,9.82
2022-11-21T19:26:42.499Z,9.25
2022-11-21T19:29:10.550Z,9.95
2022-11-21T19:31:43.101Z,8.40
2022-11-21T19:34:12.923Z,8.75
2022-11-21T19:36:40.402Z,7.68
2022-11-21T19:39:07.668Z,8.05
2022-11-21T19:41:34.741Z,8.38
2022-11-21T19:44:02.181Z,7.78
2022-11-21T19:46:32.672Z,7.43
2022-11-21T19:49:00.787Z,6.55
2022-11-21T19:51:30.322Z,7.50
2022-11-21T19:53:57.498Z,7.07
2022-11-21T19:56:26.348Z,7.13
2022-11-21T19:58:56.355Z,7.07
2022-11-21T20:01:26.211Z,7.70
2022-11-21T20:03:56.295Z,7.68
2022-11-21T20:06:26.351Z,6.53
2022-11-21T20:08:57.292Z,7.22
2022-11-21T20:11:26.284Z,7.10
2022-11-21T20:13:53.968Z,7.07
2022-11-21T20:16:23.172Z,6.95
2022-11-21T20:18:51.422Z,7.15
2022-11-21T20:21:19.683Z,6.47
2022-11-21T20:23:47.544Z,6.10
2022-11-21T20:26:17.310Z,6.10
2022-11-21T20:28:44.682Z,6.10
2022-11-21T20:31:17.380Z,7.53
2022-11-21T20:33:47.375Z,8.00
2022-11-21T20:36:20.156Z,6.93
2022-11-21T20:38:54.604Z,6.90
2022-11-21T20:41:24.130Z,6.43
2022-11-21T20:46:46.863Z,7.10
2022-11-21T20:49:14.094Z,5.65
2022-11-21T20:54:30.592Z,6.40
2022-11-21T20:56:57.866Z,7.65
2022-11-21T20:59:25.910Z,6.63
2022-11-21T21:01:53.479Z,6.13
2022-11-21T21:04:20.523Z,6.28
2022-11-21T21:06:48.066Z,7.05
2022-11-21T21:09:15.171Z,5.78
2022-11-21T21:11:51.935Z,6.53
2022-11-21T21:14:20.021Z,7.03
2022-11-21T21:16:47.062Z,6.43
2022-11-21T21:19:14.326Z,7.15
2022-11-21T21:21:41.724Z,6.80
2022-11-21T21:24:11.156Z,7.38
2022-11-21T21:26:43.077Z,6.82
2022-11-21T21:29:12.500Z,6.47
2022-11-21T21:31:42.848Z,6.10
2022-11-21T21:34:14.003Z,7.18
2022-11-21T21:36:41.250Z,8.18
2022-11-21T21:39:08.446Z,7.45
2022-11-21T21:41:36.135Z,7.15
2022-11-21T21:44:03.290Z,6.50
2022-11-21T21:46:30.325Z,6.60
2022-11-21T21:48:58.187Z,7.13
2022-11-21T21:51:27.758Z,6.53
2022-11-21T21:53:56.795Z,6.45
2022-11-21T21:56:26.889Z,6.80
2022-11-21T21:58:54.200Z,6.38
2022-11-21T22:01:23.924Z,6.50
2022-11-21T22:03:55.912Z,6.18
2022-11-21T22:06:23.862Z,6.28
2022-11-21T22:08:51.751Z,6.70
2022-11-21T22:11:21.368Z,6.40
2022-11-21T22:13:53.455Z,6.07
2022-11-21T22:16:20.552Z,6.55
2022-11-21T22:18:48.130Z,6.00
2022-11-21T22:21:16.334Z,5.75
2022-11-21T22:24:02.902Z,6.22
2022-11-21T22:26:31.703Z,6.50
2022-11-21T22:28:58.818Z,6.40
2022-11-21T22:31:25.847Z,6.13
2022-11-21T22:33:53.182Z,6.63
2022-11-21T22:36:20.297Z,6.22
2022-11-21T22:38:48.031Z,6.35
2022-11-21T22:41:20.594Z,6.35
2022-11-21T22:43:53.303Z,6.25
2022-11-21T22:46:21.158Z,6.85
2022-11-21T22:48:48.882Z,5.40
2022-11-21T22:51:22.421Z,6.05
2022-11-21T22:53:50.526Z,6.15
2022-11-21T22:56:20.235Z,5.68
2022-11-21T22:58:48.405Z,6.00
2022-11-21T23:01:25.887Z,4.93
2022-11-21T23:03:55.605Z,5.25
2022-11-21T23:06:25.004Z,4.30
2022-11-21T23:08:54.115Z,4.25
2022-11-21T23:11:23.443Z,5.18
2022-11-21T23:13:52.263Z,4.53
2022-11-21T23:16:20.179Z,4.55
2022-11-21T23:18:47.392Z,4.00
2022-11-21T23:21:14.976Z,4.43
2022-11-21T23:23:42.226Z,5.35
2022-11-21T23:26:10.121Z,4.90
2022-11-21T23:28:37.135Z,4.38
2022-11-21T23:31:04.359Z,4.25
2022-11-21T23:33:32.313Z,3.78
2022-11-21T23:35:59.407Z,4.63
2022-11-21T23:38:26.648Z,4.10
2022-11-21T23:40:53.707Z,4.32
2022-11-21T23:43:20.774Z,4.50
2022-11-21T23:45:52.234Z,4.78
2022-11-21T23:48:21.048Z,5.00
2022-11-21T23:50:50.744Z,6.13
2022-11-21T23:53:19.015Z,5.95
2022-11-21T23:55:46.405Z,6.60
2022-11-21T23:58:13.873Z,6.55
